Time;durP1;ratioP1;P1;durP2;ratioP2;P2;SDS_P1;SDS_P2;PMS_P1;PMS_P2;Temp;Humidity;BMP_temperature;BMP_pressure;BME280_temperature;BME280_humidity;BME280_pressure;Samples;Min_cycle;Max_cycle;Signal;HPM_P1;HPM_P2
2021/08/12 00:00:31;;;;;;;;;;;;;;;27.99;45.21;100745.56;5078603;28;764;-38
2021/08/12 00:02:56;;;;;;;;;;;;;;;28.00;46.50;100746.41;5094053;28;966;-38
2021/08/12 00:05:21;;;;;;;;;;;;;;;28.31;44.50;100741.78;5098254;28;725;-38
2021/08/12 00:07:47;;;;;;;;;;;;;;;27.90;46.49;100741.28;5098387;28;1914;-39
2021/08/12 00:10:12;;;;;;;;;;;;;;;28.53;44.20;100739.94;5098451;28;787;-38
2021/08/12 00:12:37;;;;;;;;;;;;;;;28.34;44.97;100744.94;5098024;28;843;-38
2021/08/12 00:15:02;;;;;;;;;;;;;;;28.23;46.87;100738.16;5098040;28;878;-37
2021/08/12 00:17:28;;;;;;;;;;;;;;;28.66;44.29;100744.63;5085649;28;993;-38
2021/08/12 00:19:53;;;;;;;;;;;;;;;28.21;46.19;100736.69;5077826;28;752;-37
2021/08/12 00:22:18;;;;;;;;;;;;;;;28.69;44.27;100740.72;5077837;28;800;-38
2021/08/12 00:24:44;;;;;;;;;;;;;;;28.55;45.15;100739.75;5077503;28;680;-36
2021/08/12 00:27:09;;;;;;;;;;;;;;;28.26;47.25;100742.31;5081115;28;1159;-38
2021/08/12 00:29:34;;;;;;;;;;;;;;;27.32;45.16;100739.22;5098002;28;1968;-34
2021/08/12 00:31:59;;;;;;;;;;;;;;;27.59;45.72;100745.84;5088679;28;993;-35
2021/08/12 00:34:25;;;;;;;;;;;;;;;28.11;44.29;100750.50;5077517;28;738;-36
2021/08/12 00:36:50;;;;;;;;;;;;;;;28.20;44.48;100737.69;5076833;28;1214;-38
2021/08/12 00:39:18;;;;;;;;;;;;;;;28.09;46.79;100747.16;5077857;28;752;-38
2021/08/12 00:41:44;;;;;;;;;;;;;;;28.54;43.49;100744.34;5077316;28;732;-38
2021/08/12 00:44:09;;;;;;;;;;;;;;;28.34;45.07;100744.94;5077590;28;759;-37
2021/08/12 00:46:34;;;;;;;;;;;;;;;28.58;44.87;100751.03;5082297;28;985;-37
2021/08/12 00:49:00;;;;;;;;;;;;;;;28.55;44.41;100747.88;5096604;28;1921;-37
2021/08/12 00:51:25;;;;;;;;;;;;;;;28.01;46.81;100745.38;5097378;28;909;-34
2021/08/12 00:53:50;;;;;;;;;;;;;;;28.65;43.86;100745.69;5097825;28;772;-37
2021/08/12 00:56:16;;;;;;;;;;;;;;;28.51;44.96;100749.28;5097266;28;798;-37
2021/08/12 00:58:41;;;;;;;;;;;;;;;28.56;45.76;100750.38;5097640;28;784;-37
2021/08/12 01:01:06;;;;;;;;;;;;;;;27.28;45.20;100748.75;5096376;28;961;-37
2021/08/12 01:03:32;;;;;;;;;;;;;;;27.53;46.28;100753.88;5076283;28;801;-38
2021/08/12 01:05:58;;;;;;;;;;;;;;;27.93;44.44;100753.59;5077164;28;768;-37
2021/08/12 01:08:24;;;;;;;;;;;;;;;27.96;45.02;100747.81;5077065;28;1967;-35
2021/08/12 01:10:53;;;;;;;;;;;;;;;28.26;44.67;100757.75;5076750;28;841;-36
2021/08/12 01:13:22;;;;;;;;;;;;;;;28.37;43.55;100751.84;5075280;28;904;-38
2021/08/12 01:15:49;;;;;;;;;;;;;;;28.18;45.10;100750.56;5075523;28;820;-36
2021/08/12 01:18:34;;;;;;;;;;;;;;;28.66;42.93;100746.53;5095028;28;985;-38
2021/08/12 01:21:06;;;;;;;;;;;;;;;28.56;43.46;100754.97;5096759;28;1389;-38
2021/08/12 01:23:31;;;;;;;;;;;;;;;28.23;45.97;100758.94;5097173;28;721;-38
2021/08/12 01:25:56;;;;;;;;;;;;;;;28.73;43.08;100761.78;5095589;28;748;-37
2021/08/12 01:28:23;;;;;;;;;;;;;;;28.45;44.45;100756.28;5082017;28;1918;-38
2021/08/12 01:30:57;;;;;;;;;;;;;;;28.42;45.85;100756.69;5075671;28;960;-37
2021/08/12 01:33:29;;;;;;;;;;;;;;;28.67;43.84;100754.44;5096438;28;943;-38
2021/08/12 01:35:59;;;;;;;;;;;;;;;28.32;45.83;100752.41;5097098;28;760;-38
2021/08/12 01:38:25;;;;;;;;;;;;;;;28.76;44.65;100757.03;5095816;28;950;-37
2021/08/12 01:40:51;;;;;;;;;;;;;;;27.22;44.66;100756.53;5094666;28;1230;-36
2021/08/12 01:43:16;;;;;;;;;;;;;;;27.75;45.57;100757.53;5096941;28;798;-36
2021/08/12 01:45:52;;;;;;;;;;;;;;;27.97;44.03;100758.44;5095538;28;779;-37
2021/08/12 01:48:18;;;;;;;;;;;;;;;28.00;44.60;100757.22;5076511;28;1984;-38
2021/08/12 01:50:43;;;;;;;;;;;;;;;28.08;45.86;100762.53;5076520;28;859;-34
2021/08/12 01:53:08;;;;;;;;;;;;;;;28.40;43.70;100758.72;5075162;28;970;-36
2021/08/12 01:55:34;;;;;;;;;;;;;;;28.06;45.70;100761.88;5075241;28;795;-36
2021/08/12 01:57:59;;;;;;;;;;;;;;;28.60;43.35;100762.50;5076512;28;779;-38
2021/08/12 02:00:25;;;;;;;;;;;;;;;28.45;44.21;100767.13;5075185;28;842;-38
2021/08/12 02:02:50;;;;;;;;;;;;;;;28.43;45.39;100769.16;5090308;28;983;-38
2021/08/12 02:05:15;;;;;;;;;;;;;;;28.68;43.58;100766.09;5095066;28;984;-38
2021/08/12 02:07:42;;;;;;;;;;;;;;;28.44;45.45;100763.59;5095135;28;1913;-37
2021/08/12 02:10:07;;;;;;;;;;;;;;;28.82;43.60;100767.06;5095960;28;803;-38
2021/08/12 02:12:33;;;;;;;;;;;;;;;28.68;44.23;100763.38;5096972;28;810;-36
2021/08/12 02:14:58;;;;;;;;;;;;;;;28.28;46.93;100763.81;5096560;28;748;-37
2021/08/12 02:17:23;;;;;;;;;;;;;;;27.54;44.17;100763.66;5084455;28;1016;-36
2021/08/12 02:19:48;;;;;;;;;;;;;;;27.58;45.34;100765.78;5076038;28;835;-37
2021/08/12 02:22:18;;;;;;;;;;;;;;;27.99;44.95;100766.38;5076913;28;760;-34
2021/08/12 02:24:57;;;;;;;;;;;;;;;28.18;44.13;100770.34;5076039;28;823;-36
2021/08/12 02:27:23;;;;;;;;;;;;;;;27.87;46.08;100766.00;5081554;28;1127;-34
2021/08/12 02:29:48;;;;;;;;;;;;;;;28.57;43.08;100773.72;5095285;28;1944;-37
2021/08/12 02:32:13;;;;;;;;;;;;;;;28.38;44.08;100771.63;5085560;28;961;-37
2021/08/12 02:34:39;;;;;;;;;;;;;;;28.32;45.45;100771.34;5074458;28;825;-36
2021/08/12 02:37:05;;;;;;;;;;;;;;;28.60;43.58;100770.63;5076432;28;784;-36
2021/08/12 02:39:30;;;;;;;;;;;;;;;28.22;45.56;100768.09;5075838;28;764;-37
2021/08/12 02:41:56;;;;;;;;;;;;;;;28.72;43.36;100773.66;5074638;28;824;-36
2021/08/12 02:44:21;;;;;;;;;;;;;;;28.55;43.96;100772.22;5075144;28;759;-37
2021/08/12 02:46:46;;;;;;;;;;;;;;;28.18;46.80;100781.16;5080952;28;939;-37
2021/08/12 02:49:12;;;;;;;;;;;;;;;28.69;43.74;100779.47;5094758;28;1913;-36
2021/08/12 02:51:37;;;;;;;;;;;;;;;28.42;45.65;100772.91;5095291;28;824;-37
2021/08/12 02:54:05;;;;;;;;;;;;;;;28.75;44.31;100783.25;5094399;28;875;-38
2021/08/12 02:56:30;;;;;;;;;;;;;;;27.09;45.36;100783.34;5097335;28;842;-37
2021/08/12 02:58:55;;;;;;;;;;;;;;;27.32;47.36;100788.69;5098559;28;792;-34
2021/08/12 03:01:21;;;;;;;;;;;;;;;27.90;44.17;100783.69;5095226;28;1032;-36
2021/08/12 03:03:46;;;;;;;;;;;;;;;27.71;40.30;100788.66;5078342;28;815;-37
2021/08/12 03:06:16;;;;;;;;;;;;;;;27.77;40.83;100796.03;5078381;28;748;-37
2021/08/12 03:08:42;;;;;;;;;;;;;;;27.62;41.03;100790.59;5079269;28;1905;-36
2021/08/12 03:11:09;;;;;;;;;;;;;;;27.34;43.75;100799.31;5076893;28;981;-36
2021/08/12 03:13:34;;;;;;;;;;;;;;;27.54;40.44;100794.22;5079171;28;837;-37
2021/08/12 03:16:00;;;;;;;;;;;;;;;27.41;40.70;100786.72;5079363;28;947;-37
2021/08/12 03:18:25;;;;;;;;;;;;;;;27.54;42.70;100796.91;5099090;28;784;-37
2021/08/12 03:20:50;;;;;;;;;;;;;;;27.51;39.64;100799.97;5099401;28;772;-37
2021/08/12 03:23:16;;;;;;;;;;;;;;;27.30;40.85;100797.97;5099101;28;748;-36
2021/08/12 03:25:41;;;;;;;;;;;;;;;27.45;39.81;100796.16;5097836;28;890;-37
2021/08/12 03:28:06;;;;;;;;;;;;;;;27.17;39.96;100796.75;5087966;28;1902;-36
2021/08/12 03:30:32;;;;;;;;;;;;;;;27.29;42.33;100807.13;5078911;28;750;-37
2021/08/12 03:32:57;;;;;;;;;;;;;;;26.65;39.82;100797.28;5095125;28;947;-39
2021/08/12 03:35:22;;;;;;;;;;;;;;;26.35;40.06;100805.22;5099324;28;784;-36
2021/08/12 03:37:47;;;;;;;;;;;;;;;26.38;39.22;100810.25;5098945;28;870;-39
2021/08/12 03:40:13;;;;;;;;;;;;;;;26.32;40.64;100819.03;5098809;28;764;-36
2021/08/12 03:42:38;;;;;;;;;;;;;;;26.62;39.06;100811.13;5099245;28;843;-39
2021/08/12 03:45:04;;;;;;;;;;;;;;;26.50;39.53;100812.53;5098976;28;780;-35
2021/08/12 03:47:29;;;;;;;;;;;;;;;25.76;39.93;100818.03;5086163;28;1023;-37
2021/08/12 03:49:54;;;;;;;;;;;;;;;25.56;40.32;100820.22;5078414;28;1906;-38
2021/08/12 03:52:19;;;;;;;;;;;;;;;25.75;39.50;100821.75;5078603;28;838;-37
2021/08/12 03:54:45;;;;;;;;;;;;;;;25.60;40.68;100826.97;5078301;28;1447;-38
2021/08/12 03:57:10;;;;;;;;;;;;;;;24.89;42.53;100830.13;5083479;28;795;-35
2021/08/12 03:59:35;;;;;;;;;;;;;;;25.18;42.94;100834.22;5088071;28;819;-35
2021/08/12 04:02:01;;;;;;;;;;;;;;;25.47;40.52;100832.03;5097196;28;811;-36
2021/08/12 04:04:26;;;;;;;;;;;;;;;23.14;46.82;100830.00;5098731;28;879;-38
2021/08/12 04:06:52;;;;;;;;;;;;;;;21.78;50.13;100834.94;5098606;28;767;-40
2021/08/12 04:09:17;;;;;;;;;;;;;;;21.25;51.77;100827.22;5084947;28;1901;-38
2021/08/12 04:11:42;;;;;;;;;;;;;;;21.48;51.06;100836.78;5078283;28;782;-39
2021/08/12 04:14:07;;;;;;;;;;;;;;;20.99;52.14;100830.47;5078140;28;732;-38
2021/08/12 04:16:33;;;;;;;;;;;;;;;21.28;51.13;100834.13;5077324;28;1246;-35
2021/08/12 04:18:59;;;;;;;;;;;;;;;21.35;50.45;100842.44;5078327;28;986;-33
2021/08/12 04:21:24;;;;;;;;;;;;;;;21.72;48.71;100835.50;5077734;28;863;-37
2021/08/12 04:23:49;;;;;;;;;;;;;;;21.23;49.78;100839.06;5077729;28;1131;-35
2021/08/12 04:26:14;;;;;;;;;;;;;;;21.24;49.83;100836.25;5077788;28;866;-39
2021/08/12 04:28:40;;;;;;;;;;;;;;;21.37;49.49;100827.94;5077548;28;1906;-40
2021/08/12 04:31:05;;;;;;;;;;;;;;;23.24;43.90;100840.66;5078012;28;963;-41
2021/08/12 04:33:31;;;;;;;;;;;;;;;24.13;36.56;100833.56;5097562;28;858;-35
2021/08/12 04:35:57;;;;;;;;;;;;;;;21.79;45.66;100830.44;5088942;28;1356;-39
2021/08/12 04:38:22;;;;;;;;;;;;;;;21.15;48.94;100842.44;5095559;28;797;-33
2021/08/12 04:40:47;;;;;;;;;;;;;;;20.71;50.35;100832.09;5097661;28;767;-41
2021/08/12 04:43:13;;;;;;;;;;;;;;;20.40;52.06;100836.50;5098059;28;756;-41
2021/08/12 04:45:38;;;;;;;;;;;;;;;20.55;52.57;100834.28;5097452;28;827;-34
2021/08/12 04:48:04;;;;;;;;;;;;;;;20.09;54.35;100839.19;5080016;28;1907;-38
2021/08/12 04:50:29;;;;;;;;;;;;;;;22.06;51.15;100845.72;5078019;28;788;-35
2021/08/12 04:52:54;;;;;;;;;;;;;;;24.01;44.41;100844.59;5077442;28;819;-42
2021/08/12 04:55:20;;;;;;;;;;;;;;;20.94;51.57;100851.44;5077349;28;824;-36
2021/08/12 04:57:45;;;;;;;;;;;;;;;20.62;52.80;100849.81;5077353;28;764;-37
2021/08/12 05:00:10;;;;;;;;;;;;;;;20.30;54.06;100846.31;5077052;28;720;-33
2021/08/12 05:02:36;;;;;;;;;;;;;;;20.92;52.73;100853.34;5088438;28;1136;-41
2021/08/12 05:05:01;;;;;;;;;;;;;;;20.92;52.94;100854.25;5097464;28;854;-36
2021/08/12 05:07:27;;;;;;;;;;;;;;;20.64;54.11;100851.34;5097625;28;728;-41
2021/08/12 05:09:52;;;;;;;;;;;;;;;21.92;51.46;100860.41;5097026;28;1893;-36
2021/08/12 05:12:20;;;;;;;;;;;;;;;23.74;46.21;100862.53;5087075;28;1106;-41
2021/08/12 05:14:46;;;;;;;;;;;;;;;21.74;50.41;100873.66;5077447;28;732;-34
2021/08/12 05:17:11;;;;;;;;;;;;;;;21.09;52.92;100867.06;5086648;28;991;-35
2021/08/12 05:19:37;;;;;;;;;;;;;;;21.04;53.59;100870.16;5096654;28;755;-41
2021/08/12 05:22:03;;;;;;;;;;;;;;;21.57;51.80;100869.91;5097175;28;823;-35
2021/08/12 05:24:28;;;;;;;;;;;;;;;21.47;51.75;100869.91;5096552;28;792;-34
2021/08/12 05:26:53;;;;;;;;;;;;;;;20.85;53.57;100874.50;5097242;28;832;-36
2021/08/12 05:29:18;;;;;;;;;;;;;;;20.70;54.55;100871.34;5096807;28;1898;-41
2021/08/12 05:31:44;;;;;;;;;;;;;;;23.27;48.24;100880.63;5090700;28;997;-38
2021/08/12 05:34:09;;;;;;;;;;;;;;;24.67;43.94;100880.88;5076865;28;831;-34
2021/08/12 05:36:35;;;;;;;;;;;;;;;24.27;45.14;100877.84;5076777;28;772;-37
2021/08/12 05:39:00;;;;;;;;;;;;;;;23.79;46.17;100875.53;5076205;28;845;-42
2021/08/12 05:41:25;;;;;;;;;;;;;;;24.63;44.54;100882.19;5077317;28;842;-42
2021/08/12 05:43:51;;;;;;;;;;;;;;;24.64;44.46;100879.31;5076650;28;874;-42
2021/08/12 05:46:16;;;;;;;;;;;;;;;24.12;45.56;100877.56;5077903;28;962;-35
2021/08/12 05:48:41;;;;;;;;;;;;;;;23.47;46.32;100877.81;5096782;28;1910;-39
2021/08/12 05:51:06;;;;;;;;;;;;;;;22.94;47.21;100880.31;5096791;28;921;-38
2021/08/12 05:53:32;;;;;;;;;;;;;;;23.07;48.89;100877.25;5096427;28;752;-36
2021/08/12 05:55:57;;;;;;;;;;;;;;;24.51;43.98;100877.09;5096902;28;816;-37
2021/08/12 05:58:22;;;;;;;;;;;;;;;23.44;46.24;100878.13;5096563;28;965;-37
2021/08/12 06:00:48;;;;;;;;;;;;;;;22.81;47.30;100870.78;5096358;28;759;-37
2021/08/12 06:03:13;;;;;;;;;;;;;;;23.66;47.08;100881.28;5096497;28;969;-39
2021/08/12 06:05:38;;;;;;;;;;;;;;;24.91;43.19;100882.81;5096630;28;811;-35
2021/08/12 06:08:04;;;;;;;;;;;;;;;23.41;46.01;100879.25;5096229;28;1906;-39
2021/08/12 06:10:30;;;;;;;;;;;;;;;23.02;46.77;100871.50;5096974;28;772;-41
2021/08/12 06:12:56;;;;;;;;;;;;;;;22.64;47.59;100872.41;5081385;28;1268;-38
2021/08/12 06:15:22;;;;;;;;;;;;;;;22.70;48.75;100865.63;5075818;28;806;-36
2021/08/12 06:17:47;;;;;;;;;;;;;;;24.32;44.23;100868.28;5090531;28;1018;-36
2021/08/12 06:20:12;;;;;;;;;;;;;;;23.59;45.59;100875.69;5096571;28;985;-38
2021/08/12 06:22:37;;;;;;;;;;;;;;;22.99;46.94;100878.84;5096318;28;756;-38
2021/08/12 06:25:03;;;;;;;;;;;;;;;22.69;47.63;100885.41;5096385;28;1015;-38
2021/08/12 06:27:28;;;;;;;;;;;;;;;22.55;48.30;100884.88;5096439;28;759;-36
2021/08/12 06:29:54;;;;;;;;;;;;;;;22.57;48.25;100882.88;5095866;28;1898;-37
2021/08/12 06:32:19;;;;;;;;;;;;;;;24.02;46.28;100888.44;5089331;28;1012;-39
2021/08/12 06:34:44;;;;;;;;;;;;;;;25.09;45.20;100884.50;5079990;28;799;-36
2021/08/12 06:37:10;;;;;;;;;;;;;;;24.92;43.27;100883.66;5079817;28;803;-40
2021/08/12 06:39:35;;;;;;;;;;;;;;;23.20;46.45;100884.91;5079978;28;883;-40
2021/08/12 06:42:00;;;;;;;;;;;;;;;22.90;46.84;100887.81;5079696;28;764;-41
2021/08/12 06:44:25;;;;;;;;;;;;;;;22.78;46.70;100884.50;5079757;28;848;-40
2021/08/12 06:46:51;;;;;;;;;;;;;;;22.74;46.54;100881.25;5086319;28;955;-35
2021/08/12 06:49:16;;;;;;;;;;;;;;;23.62;46.21;100896.03;5099860;28;1909;-34
2021/08/12 06:51:41;;;;;;;;;;;;;;;24.66;39.18;100892.59;5100121;28;791;-35
2021/08/12 06:54:06;;;;;;;;;;;;;;;23.06;44.39;100888.97;5099516;28;828;-34
2021/08/12 06:56:32;;;;;;;;;;;;;;;22.84;45.01;100894.59;5099644;28;815;-34
2021/08/12 06:58:57;;;;;;;;;;;;;;;22.74;45.40;100888.44;5100208;28;764;-42
2021/08/12 07:01:22;;;;;;;;;;;;;;;23.68;45.60;100892.72;5096398;28;1013;-40
2021/08/12 07:03:48;;;;;;;;;;;;;;;24.99;40.38;100886.53;5079581;28;803;-39
2021/08/12 07:06:13;;;;;;;;;;;;;;;23.41;44.97;100891.81;5079733;28;818;-41
2021/08/12 07:08:39;;;;;;;;;;;;;;;23.04;45.93;100891.78;5079010;28;1901;-40
2021/08/12 07:11:04;;;;;;;;;;;;;;;23.62;47.13;100890.66;5079394;28;826;-40
2021/08/12 07:13:30;;;;;;;;;;;;;;;24.92;41.39;100895.25;5099768;28;1198;-41
2021/08/12 07:15:55;;;;;;;;;;;;;;;23.62;45.10;100890.66;5099097;28;878;-40
2021/08/12 07:18:20;;;;;;;;;;;;;;;23.11;46.43;100892.88;5080081;28;954;-43
2021/08/12 07:20:47;;;;;;;;;;;;;;;22.91;46.91;100891.31;5079307;28;799;-42
2021/08/12 07:23:13;;;;;;;;;;;;;;;22.75;46.94;100892.84;5078795;28;776;-40
2021/08/12 07:25:38;;;;;;;;;;;;;;;23.08;47.40;100895.03;5079588;28;808;-41
2021/08/12 07:28:04;;;;;;;;;;;;;;;24.53;41.85;100901.13;5079598;28;1910;-37
2021/08/12 07:30:29;;;;;;;;;;;;;;;23.89;43.05;100895.06;5078529;28;789;-40
2021/08/12 07:32:54;;;;;;;;;;;;;;;23.04;44.09;100889.09;5094374;28;998;-39
2021/08/12 07:35:21;;;;;;;;;;;;;;;24.29;41.75;100905.41;5099623;28;827;-38
2021/08/12 07:37:46;;;;;;;;;;;;;;;24.12;42.78;100905.28;5098574;28;830;-37
2021/08/12 07:40:12;;;;;;;;;;;;;;;23.52;44.48;100914.94;5099379;28;794;-40
2021/08/12 07:42:37;;;;;;;;;;;;;;;24.74;41.58;100905.25;5097348;28;1432;-39
2021/08/12 07:45:05;;;;;;;;;;;;;;;24.33;44.12;100902.25;5098443;28;739;-39
2021/08/12 07:47:32;;;;;;;;;;;;;;;23.46;45.83;100908.31;5086368;28;1266;-38
2021/08/12 07:49:57;;;;;;;;;;;;;;;23.14;46.10;100913.19;5078708;28;1969;-40
2021/08/12 07:52:22;;;;;;;;;;;;;;;22.95;46.68;100901.63;5078125;28;871;-40
2021/08/12 07:54:49;;;;;;;;;;;;;;;22.90;46.67;100903.06;5078825;28;800;-39
2021/08/12 07:57:14;;;;;;;;;;;;;;;22.85;46.63;100904.38;5078329;28;1174;-39
2021/08/12 07:59:39;;;;;;;;;;;;;;;23.92;45.99;100901.97;5078061;28;768;-40
2021/08/12 08:02:05;;;;;;;;;;;;;;;25.05;41.59;100908.25;5086931;28;1037;-39
2021/08/12 08:04:30;;;;;;;;;;;;;;;20.73;48.45;100902.31;5096992;28;1108;-40
2021/08/12 08:06:55;;;;;;;;;;;;;;;20.22;51.61;100889.72;5098381;28;768;-40
2021/08/12 08:09:20;;;;;;;;;;;;;;;20.30;51.72;100889.91;5098725;28;1963;-40
2021/08/12 08:11:46;;;;;;;;;;;;;;;20.62;53.03;100898.75;5090784;28;1265;-39
2021/08/12 08:14:11;;;;;;;;;;;;;;;20.47;53.84;100892.91;5076599;28;1007;-38
2021/08/12 08:16:36;;;;;;;;;;;;;;;20.65;53.82;100894.97;5082878;28;994;-40
2021/08/12 08:19:02;;;;;;;;;;;;;;;20.70;53.99;100898.09;5098328;28;774;-38
2021/08/12 08:21:30;;;;;;;;;;;;;;;21.71;52.22;100903.41;5097942;28;795;-39
2021/08/12 08:23:55;;;;;;;;;;;;;;;23.91;44.78;100901.13;5098346;28;831;-38
2021/08/12 08:26:21;;;;;;;;;;;;;;;21.68;48.56;100901.00;5095398;28;1412;-40
2021/08/12 08:28:46;;;;;;;;;;;;;;;19.99;52.74;100897.00;5085622;28;1905;-39
2021/08/12 08:31:11;;;;;;;;;;;;;;;19.99;53.33;100897.88;5079126;28;982;-39
2021/08/12 08:33:37;;;;;;;;;;;;;;;20.12;54.52;100903.03;5097856;28;767;-35
2021/08/12 08:36:03;;;;;;;;;;;;;;;20.09;55.69;100899.75;5097208;28;843;-39
2021/08/12 08:38:29;;;;;;;;;;;;;;;20.30;55.41;100900.59;5098439;28;764;-39
2021/08/12 08:40:54;;;;;;;;;;;;;;;20.57;54.42;100900.16;5097715;28;839;-40
2021/08/12 08:43:19;;;;;;;;;;;;;;;20.23;55.38;100893.25;5097472;28;783;-40
2021/08/12 08:45:45;;;;;;;;;;;;;;;22.79;45.10;100902.25;5098130;28;823;-39
2021/08/12 08:48:10;;;;;;;;;;;;;;;22.86;45.61;100903.34;5078544;28;1918;-39
2021/08/12 08:50:37;;;;;;;;;;;;;;;19.90;51.62;100898.66;5077062;28;916;-38
2021/08/12 08:53:02;;;;;;;;;;;;;;;19.91;52.42;100903.88;5076628;28;859;-39
2021/08/12 08:55:28;;;;;;;;;;;;;;;19.94;53.64;100894.72;5076576;28;740;-38
2021/08/12 08:57:56;;;;;;;;;;;;;;;20.15;53.89;100893.91;5077149;28;764;-40
2021/08/12 09:00:21;;;;;;;;;;;;;;;20.15;54.70;100897.41;5077303;28;807;-40
2021/08/12 09:02:47;;;;;;;;;;;;;;;20.11;55.35;100892.47;5091367;28;1018;-39
2021/08/12 09:05:15;;;;;;;;;;;;;;;20.45;54.80;100900.25;5097276;28;818;-38
2021/08/12 09:07:40;;;;;;;;;;;;;;;22.48;49.83;100884.63;5097368;28;911;-39
2021/08/12 09:10:06;;;;;;;;;;;;;;;24.12;45.17;100893.69;5095693;28;1898;-40
2021/08/12 09:12:31;;;;;;;;;;;;;;;20.57;50.96;100900.97;5084894;28;1079;-39
2021/08/12 09:15:00;;;;;;;;;;;;;;;20.48;53.69;100905.31;5076707;28;839;-38
2021/08/12 09:17:26;;;;;;;;;;;;;;;20.41;54.26;100902.34;5088238;28;1001;-37
2021/08/12 09:20:01;;;;;;;;;;;;;;;21.02;53.07;100898.91;5096653;28;829;-39
2021/08/12 09:22:26;;;;;;;;;;;;;;;20.76;54.08;100902.88;5095354;28;1483;-40
2021/08/12 09:24:52;;;;;;;;;;;;;;;20.63;54.78;100900.47;5085877;28;739;-40
2021/08/12 09:27:21;;;;;;;;;;;;;;;23.34;45.91;100905.00;5076571;28;835;-39
2021/08/12 09:29:46;;;;;;;;;;;;;;;22.23;47.57;100913.78;5086623;28;1905;-42
2021/08/12 09:32:11;;;;;;;;;;;;;;;19.80;52.98;100915.44;5087259;28;938;-38
2021/08/12 09:34:40;;;;;;;;;;;;;;;20.35;52.32;100902.88;5076023;28;728;-38
2021/08/12 09:37:05;;;;;;;;;;;;;;;20.02;54.66;100900.25;5077043;28;726;-39
2021/08/12 09:39:30;;;;;;;;;;;;;;;20.49;53.43;100919.50;5076785;28;550;-40
2021/08/12 09:41:56;;;;;;;;;;;;;;;20.37;54.14;100911.59;5076085;28;493;-38
2021/08/12 09:44:36;;;;;;;;;;;;;;;20.69;53.54;100915.09;5076331;28;740;-39
2021/08/12 09:47:03;;;;;;;;;;;;;;;20.30;54.95;100913.94;5084952;28;975;-39
2021/08/12 09:49:35;;;;;;;;;;;;;;;23.02;47.63;100912.59;5096231;28;1905;-38
2021/08/12 09:52:02;;;;;;;;;;;;;;;22.39;47.09;100912.28;5097381;28;747;-40
2021/08/12 09:54:29;;;;;;;;;;;;;;;19.90;52.59;100910.16;5094921;28;1066;-43
2021/08/12 09:56:54;;;;;;;;;;;;;;;20.18;52.27;100904.34;5096488;28;771;-40
2021/08/12 09:59:19;;;;;;;;;;;;;;;20.14;53.46;100906.41;5095174;28;832;-42
2021/08/12 10:01:44;;;;;;;;;;;;;;;20.20;53.94;100907.72;5089335;28;998;-41
2021/08/12 10:04:25;;;;;;;;;;;;;;;20.70;52.80;100908.78;5076714;28;871;-39
2021/08/12 10:06:50;;;;;;;;;;;;;;;20.59;53.42;100915.06;5080211;28;871;-40
2021/08/12 10:09:18;;;;;;;;;;;;;;;20.42;54.32;100906.69;5080543;28;1956;-41
2021/08/12 10:11:44;;;;;;;;;;;;;;;22.80;47.65;100903.13;5080060;28;1115;-41
2021/08/12 10:14:09;;;;;;;;;;;;;;;22.83;46.50;100909.03;5080448;28;835;-42
2021/08/12 10:16:35;;;;;;;;;;;;;;;19.94;52.31;100910.75;5084773;28;951;-42
2021/08/12 10:19:01;;;;;;;;;;;;;;;19.56;53.88;100915.69;5100360;28;855;-35
2021/08/12 10:21:26;;;;;;;;;;;;;;;19.99;53.74;100911.22;5100794;28;826;-38
2021/08/12 10:23:53;;;;;;;;;;;;;;;20.08;53.96;100912.28;5100415;28;732;-42
2021/08/12 10:26:20;;;;;;;;;;;;;;;20.43;53.72;100910.22;5101052;28;842;-35
2021/08/12 10:28:46;;;;;;;;;;;;;;;20.64;53.31;100911.97;5100287;28;1961;-37
2021/08/12 10:31:12;;;;;;;;;;;;;;;21.17;52.04;100915.38;5098898;28;958;-34
2021/08/12 10:33:37;;;;;;;;;;;;;;;22.57;48.88;100911.53;5078553;28;753;-34
2021/08/12 10:36:03;;;;;;;;;;;;;;;23.79;45.34;100913.97;5079738;28;804;-38
2021/08/12 10:38:28;;;;;;;;;;;;;;;19.92;51.97;100908.22;5078757;28;1026;-37
2021/08/12 10:40:53;;;;;;;;;;;;;;;19.63;54.15;100910.69;5080255;28;819;-39
2021/08/12 10:43:26;;;;;;;;;;;;;;;19.51;55.53;100902.72;5079443;28;796;-35
2021/08/12 10:45:55;;;;;;;;;;;;;;;19.57;55.96;100912.03;5079919;28;859;-39
2021/08/12 10:48:21;;;;;;;;;;;;;;;19.91;55.60;100913.69;5099013;28;1917;-39
2021/08/12 10:50:58;;;;;;;;;;;;;;;19.88;55.75;100919.28;5099617;28;728;-38
2021/08/12 10:53:24;;;;;;;;;;;;;;;19.98;55.82;100920.22;5100536;28;806;-37
2021/08/12 10:55:49;;;;;;;;;;;;;;;22.38;49.65;100921.34;5099911;28;803;-35
2021/08/12 10:58:17;;;;;;;;;;;;;;;23.15;46.84;100933.69;5099416;28;818;-36
2021/08/12 11:00:46;;;;;;;;;;;;;;;20.15;53.50;100928.63;5100051;28;755;-37
2021/08/12 11:03:11;;;;;;;;;;;;;;;19.51;54.75;100932.09;5081547;28;1009;-35
2021/08/12 11:05:55;;;;;;;;;;;;;;;19.75;55.16;100928.31;5077651;28;1059;-34
2021/08/12 11:08:36;;;;;;;;;;;;;;;19.75;55.48;100919.50;5079594;28;1897;-39
2021/08/12 11:11:01;;;;;;;;;;;;;;;19.74;55.80;100915.09;5077459;28;1309;-36
2021/08/12 11:13:32;;;;;;;;;;;;;;;19.55;57.12;100912.16;5097852;28;1120;-41
2021/08/12 11:15:58;;;;;;;;;;;;;;;19.63;57.20;100914.22;5098919;28;859;-40
2021/08/12 11:18:41;;;;;;;;;;;;;;;22.53;49.44;100912.81;5079230;28;1013;-40
2021/08/12 11:21:15;;;;;;;;;;;;;;;20.93;50.93;100929.97;5079243;28;842;-38
2021/08/12 11:23:40;;;;;;;;;;;;;;;19.16;55.95;100926.00;5077433;28;1297;-35
2021/08/12 11:26:07;;;;;;;;;;;;;;;19.34;55.54;100928.13;5078721;28;771;-39
2021/08/12 11:28:38;;;;;;;;;;;;;;;19.28;57.07;100925.97;5079259;28;1902;-38
2021/08/12 11:31:03;;;;;;;;;;;;;;;22.24;49.68;100925.31;5079220;28;1018;-36
2021/08/12 11:33:29;;;;;;;;;;;;;;;22.25;49.12;100922.50;5098735;28;839;-33
2021/08/12 11:36:14;;;;;;;;;;;;;;;20.27;55.63;100918.72;5099054;28;772;-36
2021/08/12 11:38:43;;;;;;;;;;;;;;;22.22;51.03;100930.00;5098801;28;843;-37
2021/08/12 11:41:08;;;;;;;;;;;;;;;23.87;44.40;100926.63;5098929;28;794;-39
2021/08/12 11:43:34;;;;;;;;;;;;;;;20.30;53.94;100921.13;5099195;28;740;-37
2021/08/12 11:45:59;;;;;;;;;;;;;;;22.31;50.39;100925.59;5098900;28;795;-35
2021/08/12 11:48:24;;;;;;;;;;;;;;;23.98;44.02;100928.19;5076815;28;1913;-37
2021/08/12 11:50:50;;;;;;;;;;;;;;;20.71;52.72;100921.16;5077381;28;784;-40
2021/08/12 11:53:15;;;;;;;;;;;;;;;21.75;52.46;100929.75;5078928;28;788;-39
2021/08/12 11:58:46;;;;;;;;;;;;;;;20.87;51.70;100923.31;5081938;28;1479;-35
2021/08/12 12:01:12;;;;;;;;;;;;;;;22.64;48.80;100926.03;5087113;28;807;-35
2021/08/12 12:03:38;;;;;;;;;;;;;;;24.10;44.63;100928.78;5098128;28;815;-37
2021/08/12 12:06:03;;;;;;;;;;;;;;;21.21;51.89;100930.16;5098627;28;716;-35
2021/08/12 12:08:28;;;;;;;;;;;;;;;20.78;53.61;100929.47;5098559;28;1914;-39
2021/08/12 12:10:53;;;;;;;;;;;;;;;20.54;53.97;100931.50;5098382;28;724;-39
2021/08/12 12:13:19;;;;;;;;;;;;;;;23.10;47.19;100930.59;5079460;28;1184;-33
2021/08/12 12:15:52;;;;;;;;;;;;;;;21.72;50.39;100935.38;5077843;28;832;-40
2021/08/12 12:18:34;;;;;;;;;;;;;;;20.87;53.21;100939.34;5096486;28;1010;-39
2021/08/12 12:21:19;;;;;;;;;;;;;;;20.48;55.02;100936.53;5098261;28;838;-34
2021/08/12 12:23:46;;;;;;;;;;;;;;;22.32;50.99;100929.97;5097893;28;1708;-35
2021/08/12 12:26:18;;;;;;;;;;;;;;;23.80;46.32;100926.41;5096707;28;752;-37
2021/08/12 12:28:44;;;;;;;;;;;;;;;20.67;52.77;100925.91;5096436;28;2009;-37
2021/08/12 12:31:19;;;;;;;;;;;;;;;22.20;50.68;100927.47;5097182;28;950;-36
2021/08/12 12:33:44;;;;;;;;;;;;;;;23.73;45.87;100928.88;5077470;28;752;-36
2021/08/12 12:36:09;;;;;;;;;;;;;;;20.85;51.96;100927.09;5076132;28;809;-39
2021/08/12 12:38:35;;;;;;;;;;;;;;;22.03;51.21;100937.09;5076647;28;806;-40
2021/08/12 12:41:05;;;;;;;;;;;;;;;23.79;44.58;100930.06;5075948;28;748;-40
2021/08/12 12:43:30;;;;;;;;;;;;;;;20.70;51.95;100932.84;5076201;28;835;-38
2021/08/12 12:45:55;;;;;;;;;;;;;;;22.28;49.82;100932.09;5077522;28;841;-33
2021/08/12 12:48:28;;;;;;;;;;;;;;;23.97;43.64;100937.28;5095818;28;1970;-41
2021/08/12 12:50:53;;;;;;;;;;;;;;;20.47;51.57;100938.34;5097938;28;799;-37
2021/08/12 12:53:34;;;;;;;;;;;;;;;22.40;48.60;100930.09;5097598;28;768;-38